KLM1199 KFAT-KSFO
Flight info
| Callsign | KLM1199 |
|---|---|
| Flight time | 0h 32m |
| Altitude | 20000 |
| Route | YOSE3 NTELL ALWYS CEDES ARCHI |
| Aircraft | B77W/H-SDE1E2E3FGHIJ2J3J4J5M1RWXY/LB1D1 |
Departure
| Time | 2026-04-17 00:33 |
|---|---|
| Airport | Fresno Yosemite International Airport (KFAT) |
Arrival
| Time | 2026-04-17 01:05 |
|---|---|
| Airport | San Francisco International Airport (KSFO) |
| Time | Latitude | Longitude | Altitude | Speed | Heading |
|---|---|---|---|---|---|
| 2026-04-17 00:20 | 36.77007 | -119.70204 | 349 ft | 0 kts | 268° |
| 2026-04-17 00:30 | 36.76999 | -119.70247 | 351 ft | 12 kts | 243° |
| 2026-04-17 00:30 | 36.76979 | -119.70276 | 359 ft | 0 kts | 226° |
| 2026-04-17 00:31 | 36.76974 | -119.70282 | 357 ft | 9 kts | 226° |
| 2026-04-17 00:32 | 36.76939 | -119.70452 | 359 ft | 23 kts | 303° |
| 2026-04-17 00:32 | 36.76952 | -119.70475 | 357 ft | 0 kts | 307° |
| 2026-04-17 00:32 | 36.77006 | -119.70565 | 353 ft | 41 kts | 306° |
| 2026-04-17 00:33 | 36.77349 | -119.71174 | 355 ft | 126 kts | 305° |
| 2026-04-17 00:33 | 36.77992 | -119.72281 | 457 ft | 177 kts | 307° |
| 2026-04-17 00:33 | 36.78713 | -119.73482 | 1436 ft | 167 kts | 307° |
| 2026-04-17 00:33 | 36.79399 | -119.74644 | 2312 ft | 171 kts | 307° |
| 2026-04-17 00:34 | 36.80146 | -119.75924 | 2766 ft | 196 kts | 307° |
| 2026-04-17 00:34 | 36.81017 | -119.77436 | 3081 ft | 227 kts | 306° |
| 2026-04-17 00:34 | 36.81918 | -119.79047 | 3897 ft | 231 kts | 306° |
| 2026-04-17 00:34 | 36.82852 | -119.80658 | 4894 ft | 229 kts | 309° |
| 2026-04-17 00:35 | 36.83828 | -119.82210 | 5783 ft | 231 kts | 311° |
| 2026-04-17 00:35 | 36.84845 | -119.83811 | 6530 ft | 233 kts | 315° |
| 2026-04-17 00:35 | 36.86063 | -119.85135 | 7331 ft | 235 kts | 323° |
| 2026-04-17 00:35 | 36.87337 | -119.86377 | 8247 ft | 235 kts | 323° |
| 2026-04-17 00:36 | 36.88676 | -119.87704 | 8698 ft | 256 kts | 322° |
| 2026-04-17 00:36 | 36.90059 | -119.89103 | 9614 ft | 255 kts | 320° |
| 2026-04-17 00:36 | 36.91339 | -119.90686 | 10330 ft | 265 kts | 313° |
| 2026-04-17 00:36 | 36.92593 | -119.92481 | 10793 ft | 280 kts | 311° |
| 2026-04-17 00:37 | 36.93861 | -119.94350 | 11033 ft | 284 kts | 311° |
| 2026-04-17 00:37 | 36.95132 | -119.96226 | 11012 ft | 280 kts | 311° |
| 2026-04-17 00:37 | 36.96403 | -119.98096 | 11030 ft | 283 kts | 311° |
| 2026-04-17 00:37 | 36.97691 | -119.99980 | 11027 ft | 286 kts | 312° |
| 2026-04-17 00:38 | 36.98996 | -120.01881 | 11027 ft | 289 kts | 312° |
| 2026-04-17 00:38 | 37.00304 | -120.03780 | 11009 ft | 288 kts | 312° |
| 2026-04-17 00:38 | 37.01609 | -120.05672 | 11015 ft | 286 kts | 312° |
| 2026-04-17 00:38 | 37.02910 | -120.07556 | 11010 ft | 286 kts | 312° |
| 2026-04-17 00:39 | 37.04211 | -120.09438 | 11030 ft | 285 kts | 312° |
| 2026-04-17 00:39 | 37.05505 | -120.11310 | 11025 ft | 284 kts | 312° |
| 2026-04-17 00:39 | 37.06798 | -120.13182 | 11018 ft | 284 kts | 312° |
| 2026-04-17 00:39 | 37.08071 | -120.15024 | 11018 ft | 281 kts | 312° |
| 2026-04-17 00:40 | 37.09399 | -120.16944 | 11048 ft | 310 kts | 312° |
| 2026-04-17 00:40 | 37.10893 | -120.19100 | 11042 ft | 340 kts | 312° |
| 2026-04-17 00:40 | 37.12434 | -120.21331 | 11010 ft | 335 kts | 312° |
| 2026-04-17 00:40 | 37.13956 | -120.23541 | 11021 ft | 337 kts | 312° |
| 2026-04-17 00:41 | 37.15495 | -120.25775 | 11007 ft | 336 kts | 312° |
| 2026-04-17 00:41 | 37.17032 | -120.28009 | 11028 ft | 339 kts | 312° |
| 2026-04-17 00:41 | 37.18568 | -120.30241 | 11011 ft | 336 kts | 312° |
| 2026-04-17 00:41 | 37.20098 | -120.32466 | 11028 ft | 337 kts | 312° |
| 2026-04-17 00:42 | 37.21627 | -120.34690 | 11016 ft | 335 kts | 312° |
| 2026-04-17 00:42 | 37.23146 | -120.36901 | 11026 ft | 335 kts | 312° |
| 2026-04-17 00:42 | 37.24674 | -120.39129 | 11013 ft | 338 kts | 312° |
| 2026-04-17 00:42 | 37.26206 | -120.41362 | 11015 ft | 337 kts | 312° |
| 2026-04-17 00:43 | 37.27717 | -120.43565 | 11025 ft | 338 kts | 312° |
| 2026-04-17 00:43 | 37.29250 | -120.45802 | 11011 ft | 338 kts | 312° |
| 2026-04-17 00:43 | 37.30783 | -120.48040 | 11010 ft | 338 kts | 312° |
| 2026-04-17 00:43 | 37.32319 | -120.50285 | 11028 ft | 339 kts | 312° |
| 2026-04-17 00:44 | 37.33855 | -120.52531 | 11015 ft | 337 kts | 312° |
| 2026-04-17 00:44 | 37.35388 | -120.54775 | 11029 ft | 339 kts | 312° |
| 2026-04-17 00:44 | 37.36918 | -120.57016 | 11024 ft | 338 kts | 312° |
| 2026-04-17 00:44 | 37.38447 | -120.59257 | 11013 ft | 336 kts | 312° |
| 2026-04-17 00:45 | 37.39967 | -120.61487 | 11031 ft | 337 kts | 312° |
| 2026-04-17 00:45 | 37.41496 | -120.63730 | 11020 ft | 337 kts | 312° |
| 2026-04-17 00:45 | 37.43018 | -120.65965 | 11017 ft | 332 kts | 312° |
| 2026-04-17 00:45 | 37.44490 | -120.68130 | 11007 ft | 321 kts | 312° |
| 2026-04-17 00:46 | 37.45927 | -120.70245 | 11018 ft | 315 kts | 312° |
| 2026-04-17 00:46 | 37.47357 | -120.72348 | 11015 ft | 318 kts | 312° |
| 2026-04-17 00:46 | 37.48799 | -120.74469 | 11034 ft | 321 kts | 312° |
| 2026-04-17 00:46 | 37.50255 | -120.76613 | 11036 ft | 323 kts | 312° |
| 2026-04-17 00:47 | 37.51715 | -120.78766 | 11019 ft | 323 kts | 312° |
| 2026-04-17 00:47 | 37.53173 | -120.80917 | 11017 ft | 322 kts | 312° |
| 2026-04-17 00:47 | 37.54625 | -120.83061 | 11017 ft | 321 kts | 312° |
| 2026-04-17 00:47 | 37.56073 | -120.85201 | 11034 ft | 321 kts | 312° |
| 2026-04-17 00:48 | 37.57523 | -120.87344 | 11030 ft | 320 kts | 312° |
| 2026-04-17 00:48 | 37.58969 | -120.89482 | 11022 ft | 320 kts | 312° |
| 2026-04-17 00:48 | 37.60412 | -120.91617 | 11024 ft | 319 kts | 312° |
| 2026-04-17 00:48 | 37.61822 | -120.93764 | 11013 ft | 315 kts | 307° |
| 2026-04-17 00:49 | 37.62726 | -120.96293 | 11039 ft | 322 kts | 288° |
| 2026-04-17 00:49 | 37.62972 | -120.99135 | 11020 ft | 332 kts | 271° |
| 2026-04-17 00:49 | 37.62694 | -121.02054 | 11036 ft | 337 kts | 265° |
| 2026-04-17 00:49 | 37.62326 | -121.04935 | 11020 ft | 338 kts | 265° |
| 2026-04-17 00:50 | 37.61936 | -121.07860 | 11030 ft | 338 kts | 265° |
| 2026-04-17 00:50 | 37.61549 | -121.10788 | 11029 ft | 338 kts | 265° |
| 2026-04-17 00:50 | 37.61171 | -121.13714 | 11029 ft | 338 kts | 265° |
| 2026-04-17 00:50 | 37.60801 | -121.16645 | 11030 ft | 338 kts | 265° |
| 2026-04-17 00:51 | 37.60435 | -121.19568 | 11024 ft | 337 kts | 265° |
| 2026-04-17 00:51 | 37.60074 | -121.22482 | 11055 ft | 336 kts | 266° |
| 2026-04-17 00:51 | 37.59715 | -121.25399 | 11055 ft | 336 kts | 265° |
| 2026-04-17 00:51 | 37.59356 | -121.28306 | 11062 ft | 335 kts | 265° |
| 2026-04-17 00:52 | 37.58998 | -121.31206 | 11064 ft | 335 kts | 265° |
| 2026-04-17 00:52 | 37.58641 | -121.34106 | 11063 ft | 335 kts | 266° |
| 2026-04-17 00:52 | 37.58282 | -121.37009 | 11058 ft | 335 kts | 266° |
| 2026-04-17 00:52 | 37.57922 | -121.39915 | 11073 ft | 335 kts | 266° |
| 2026-04-17 00:53 | 37.57566 | -121.42786 | 11073 ft | 336 kts | 266° |
| 2026-04-17 00:53 | 37.57204 | -121.45696 | 11072 ft | 335 kts | 265° |
| 2026-04-17 00:53 | 37.56846 | -121.48571 | 11058 ft | 327 kts | 266° |
| 2026-04-17 00:53 | 37.56494 | -121.51359 | 11045 ft | 317 kts | 266° |
| 2026-04-17 00:54 | 37.56152 | -121.54071 | 11044 ft | 311 kts | 266° |
| 2026-04-17 00:54 | 37.55818 | -121.56766 | 11078 ft | 312 kts | 266° |
| 2026-04-17 00:54 | 37.55480 | -121.59480 | 11005 ft | 316 kts | 266° |
| 2026-04-17 00:54 | 37.55134 | -121.62224 | 10724 ft | 317 kts | 265° |
| 2026-04-17 00:55 | 37.54647 | -121.64892 | 10459 ft | 305 kts | 259° |
| 2026-04-17 00:55 | 37.54037 | -121.67374 | 10200 ft | 288 kts | 258° |
| 2026-04-17 00:55 | 37.53436 | -121.69722 | 9958 ft | 275 kts | 258° |
| 2026-04-17 00:55 | 37.52858 | -121.72033 | 9703 ft | 277 kts | 258° |
| 2026-04-17 00:56 | 37.52283 | -121.74371 | 9416 ft | 279 kts | 259° |
| 2026-04-17 00:56 | 37.51716 | -121.76712 | 9187 ft | 279 kts | 259° |
| 2026-04-17 00:56 | 37.51161 | -121.79020 | 8860 ft | 277 kts | 259° |
| 2026-04-17 00:56 | 37.50608 | -121.81320 | 8560 ft | 273 kts | 258° |
| 2026-04-17 00:57 | 37.50056 | -121.83617 | 8049 ft | 274 kts | 258° |
| 2026-04-17 00:57 | 37.49500 | -121.85920 | 7558 ft | 276 kts | 258° |
| 2026-04-17 00:57 | 37.49079 | -121.88260 | 7120 ft | 269 kts | 273° |
| 2026-04-17 00:57 | 37.49156 | -121.90604 | 6998 ft | 269 kts | 280° |
| 2026-04-17 00:58 | 37.49330 | -121.92959 | 6800 ft | 271 kts | 280° |
| 2026-04-17 00:58 | 37.49491 | -121.95310 | 6410 ft | 268 kts | 279° |
| 2026-04-17 00:58 | 37.49647 | -121.97638 | 5923 ft | 264 kts | 279° |
| 2026-04-17 00:58 | 37.49787 | -121.99919 | 5446 ft | 258 kts | 279° |
| 2026-04-17 00:59 | 37.49918 | -122.02141 | 5135 ft | 250 kts | 279° |
| 2026-04-17 00:59 | 37.50048 | -122.04331 | 4867 ft | 253 kts | 279° |
| 2026-04-17 00:59 | 37.50178 | -122.06556 | 4559 ft | 254 kts | 279° |
| 2026-04-17 00:59 | 37.50319 | -122.08693 | 4247 ft | 242 kts | 285° |
| 2026-04-17 01:00 | 37.50831 | -122.10578 | 4207 ft | 212 kts | 300° |
| 2026-04-17 01:00 | 37.51474 | -122.12191 | 4139 ft | 203 kts | 303° |
| 2026-04-17 01:00 | 37.52129 | -122.13739 | 3851 ft | 199 kts | 303° |
| 2026-04-17 01:00 | 37.52756 | -122.15229 | 3620 ft | 186 kts | 303° |
| 2026-04-17 01:01 | 37.53345 | -122.16630 | 3390 ft | 178 kts | 304° |
| 2026-04-17 01:01 | 37.53932 | -122.18019 | 3159 ft | 179 kts | 303° |
| 2026-04-17 01:01 | 37.54510 | -122.19395 | 2908 ft | 177 kts | 303° |
| 2026-04-17 01:01 | 37.55088 | -122.20772 | 2692 ft | 177 kts | 303° |
| 2026-04-17 01:02 | 37.55656 | -122.22128 | 2432 ft | 174 kts | 304° |
| 2026-04-17 01:02 | 37.56221 | -122.23474 | 2180 ft | 170 kts | 303° |
| 2026-04-17 01:02 | 37.56759 | -122.24761 | 1964 ft | 163 kts | 303° |
| 2026-04-17 01:02 | 37.57290 | -122.26023 | 1742 ft | 163 kts | 303° |
| 2026-04-17 01:03 | 37.57825 | -122.27299 | 1537 ft | 164 kts | 302° |
| 2026-04-17 01:03 | 37.58340 | -122.28533 | 1325 ft | 154 kts | 302° |
| 2026-04-17 01:03 | 37.58814 | -122.29662 | 1105 ft | 140 kts | 301° |
| 2026-04-17 01:03 | 37.59257 | -122.30719 | 957 ft | 137 kts | 301° |
| 2026-04-17 01:04 | 37.59710 | -122.31793 | 755 ft | 140 kts | 298° |
| 2026-04-17 01:04 | 37.60156 | -122.32864 | 596 ft | 135 kts | 297° |
| 2026-04-17 01:04 | 37.60591 | -122.33897 | 391 ft | 129 kts | 297° |
| 2026-04-17 01:04 | 37.61013 | -122.34904 | 222 ft | 131 kts | 296° |
| 2026-04-17 01:05 | 37.61445 | -122.35919 | 54 ft | 132 kts | 293° |
| 2026-04-17 01:05 | 37.61838 | -122.36882 | 24 ft | 112 kts | 296° |
| 2026-04-17 01:05 | 37.62050 | -122.37399 | 23 ft | 84 kts | 298° |
| 2026-04-17 01:05 | 37.62251 | -122.37842 | 29 ft | 46 kts | 299° |
| 2026-04-17 01:06 | 37.62386 | -122.38100 | 29 ft | 30 kts | 331° |
| 2026-04-17 01:06 | 37.62516 | -122.38132 | 27 ft | 13 kts | 327° |
| 2026-04-17 01:06 | 37.62562 | -122.38230 | 25 ft | 14 kts | 297° |
| 2026-04-17 01:06 | 37.62608 | -122.38339 | 24 ft | 14 kts | 298° |
| 2026-04-17 01:07 | 37.62655 | -122.38449 | 25 ft | 14 kts | 298° |
| 2026-04-17 01:07 | 37.62702 | -122.38559 | 25 ft | 14 kts | 298° |
| 2026-04-17 01:07 | 37.62748 | -122.38669 | 31 ft | 14 kts | 298° |
| 2026-04-17 01:07 | 37.62795 | -122.38780 | 28 ft | 14 kts | 297° |
| 2026-04-17 01:08 | 37.62841 | -122.38890 | 29 ft | 14 kts | 297° |
| 2026-04-17 01:08 | 37.62886 | -122.39001 | 28 ft | 14 kts | 297° |
| 2026-04-17 01:08 | 37.62932 | -122.39111 | 28 ft | 14 kts | 297° |
| 2026-04-17 01:08 | 37.62999 | -122.39205 | 30 ft | 15 kts | 336° |
| 2026-04-17 01:09 | 37.63098 | -122.39256 | 28 ft | 16 kts | 346° |
| 2026-04-17 01:09 | 37.63181 | -122.39174 | 26 ft | 17 kts | 39° |
| 2026-04-17 01:09 | 37.63298 | -122.39175 | 23 ft | 18 kts | 354° |
| 2026-04-17 01:09 | 37.63388 | -122.39084 | 24 ft | 18 kts | 62° |
| 2026-04-17 01:10 | 37.63423 | -122.38994 | 24 ft | 10 kts | 59° |
| 2026-04-17 01:10 | 37.63487 | -122.38936 | 21 ft | 13 kts | 22° |
| 2026-04-17 01:10 | 37.63515 | -122.38923 | 19 ft | 0 kts | 19° |
| 2026-04-17 01:10 | 37.63529 | -122.38918 | 19 ft | 0 kts | 17° |